Jump to content

  •  

SOUTHWEST AIRLINES FLIGHT WN1558 FLOWN ON 09-22-2017 BY CAPTAIN TYLER HANUS

Pilot StatsCaptain Tyler Hanus (LDP525) • 262.7 total hours • 63 total flights [View Logbook]
FLIGHT DETAILS
StatusReceived and approved on 2017-09-22 at 12:09:45
Origin AirportMcCarran Intl (KLAS) • Las Vegas, Nevada, United States (2,180 feet MSL)
Filed Flight PlanKLAS SUVIE J100 BCE J60 JOT KMDW
Destination AirportChicago Midway Intl (KMDW) • Chicago, Illinois, United States (620 feet MSL)
Alternate AirportNone Filed
AirlineSouthwest Airlines
AircraftBoeing 737-800 | Winglets (73H / B737-800)
FS Aircraft UsedBoeing 737-8H4NGX Southwest Airlines (Warrior One) Winglets
Cruising AltitudeFL370
Distance Flown1,319 nautical miles
Passengers Onboard53 passengers (32.72% full)
DEPARTURE DETAILS
Time Out06:07:53
Taxi Data127,947 lbs total with 24,457 lbs of fuel onboard
Takeoff Data06:20:12 (12 minutes after leaving gate/ramp) • 127,316 lbs total • 4° pitch at 142 knots
Departure METARKLAS 221156Z VRB03KT 10SM CLR 15/M03 A2978 RMK AO2 SLP067 T01501033 10189 20150 53005
ARRIVAL DETAILS
Landing Data11:25:03 • 110,976 lbs total • 1° pitch doing 117 knots at a rate of -131.49 feet/minute with 7,214 lbs of fuel onboard
Time In11:31:17 (6 minutes after landing)
Ramp Weight110,704 lbs total
Total Fuel Used17,243 lbs
Total Block Time03:14:22 (3.2 hours) while 19 minutes were spent on the ground
Arrival METARKMDW 221553Z 23007KT 10SM FEW250 31/20 A3008 RMK AO2 SLP172 T03110200
MISCELLANEOUS DETAILS
LiveDISPATCH Version4.8.3.1
FS Version
FSUIPC Version4.97
OS VersionWindows 7 32-bit
Screen Resolution1360 x 768
Pilot's CommentsNo Comments Reported
FLIGHT MAP